• Join FlightAware (Why Join?)
  • Login
  • US Flag 
04:21PM EDT


 

Airport Tracker/Info


-or-


 

Live Flight TrackerFlight Track Log ✈ SWA1046 ✈ 05-May-2013 ✈ KALB - KMCO

Flight Track Log - Related Links

Times and Time Zones

All times are in EDT time to prevent confusion due to time zone crossing. See the SWA1046 flight status page for this flight to view local times or setup timezone preferences in your user account.

Time Position Orientation Groundspeed Altitude Reporting Facility
EDT Latitude Longitude Course Direction KTS MPH feet Rate Location/Type
07:55AM 42.7278 -73.8081 179° South 150 173 1,400  Level Boston Center
07:55AM 42.6944 -73.8072 179° South 176 203 2,600 1,740 Climbing Boston Center
07:56AM 42.6853 -73.8664 258° West 234 269 4,300 2,520 Climbing Boston Center
07:57AM 42.6675 -73.9536 255° West 244 281 7,500 3,120 Climbing Boston Center
07:58AM 42.6494 -74.0464 255° West 244 281 10,600 3,540 Climbing Boston Center
07:59AM 42.6292 -74.1558 256° West 264 304 14,600 3,240 Climbing Boston Center
08:00AM 42.5864 -74.2253 230° Southwest 270 311 17,100 1,620 Climbing Boston Center
08:01AM 42.5061 -74.1692 153° Southeast 234 269 17,900 1,680 Climbing Boston Center
08:02AM 42.4428 -74.0803 134° Southeast 267 307 20,500 2,520 Climbing Boston Center
08:03AM 42.3692 -73.9800 135° Southeast 332 382 23,000 2,340 Climbing Boston Center
08:04AM 42.2869 -73.8853 140° Southeast 369 425 25,200 1,920 Climbing Boston Center
08:05AM 42.1636 -73.9078 188° South 381 438 26,900 1,620 Climbing Boston Center
08:06AM 42.0400 -73.9636 199° South 417 480 28,500 1,560 Climbing Boston Center
08:07AM 41.9119 -74.0247 200° South 458 527 30,100 1,740 Climbing Boston Center
08:09AM 41.6825 -74.1208 197° South 509 586 33,300 1,920 Climbing New York Center
08:10AM 41.5583 -74.1728 197° South 493 567 35,300 1,320 Climbing New York Center
08:11AM 41.4336 -74.2300 199° South 479 551 36,000 300 Climbing New York Center
08:12AM 41.3367 -74.2719 198° South 468 539 36,000  Level New York Center
08:13AM 41.1956 -74.3253 196° South 474 545 36,000  Level New York Center
08:14AM 41.0733 -74.3767 198° South 468 539 36,000  Level New York Center
08:15AM 40.9508 -74.4306 198° South 468 539 36,000  Level New York Center
08:16AM 40.8261 -74.4814 197° South 468 539 36,000  Level New York Center
08:17AM 40.7058 -74.5350 199° South 468 539 36,000  Level New York Center
08:18AM 40.5811 -74.5883 198° South 468 539 36,000  Level New York Center
08:20AM 40.2831 -74.7103 197° South 464 534 36,000  Level Washington Center
08:21AM 40.1628 -74.7608 198° South 464 534 36,000  Level Washington Center
08:22AM 40.0422 -74.8111 198° South 458 527 36,000  Level Washington Center
08:23AM 39.9364 -74.8556 198° South 458 527 36,000  Level Washington Center
08:24AM 39.8053 -74.9081 197° South 458 527 36,000  Level Washington Center
08:25AM 39.6972 -74.9525 198° South 458 527 36,000  Level Washington Center
08:26AM 39.5767 -75.0019 198° South 463 533 36,000  Level Washington Center
08:27AM 39.4603 -75.0458 196° South 457 526 36,000  Level Washington Center
08:28AM 39.3436 -75.0897 196° South 451 519 36,000 720 Level Washington Center
08:29AM 39.2250 -75.1414 199° South 451 519 37,500 960 Climbing Washington Center
08:30AM 39.1147 -75.2117 206° Southwest 445 512 38,000 240 Climbing Washington Center
08:31AM 39.0044 -75.2817 206° Southwest 445 512 38,000  Level Washington Center
08:32AM 38.8942 -75.3436 204° Southwest 440 506 38,000  Level Washington Center
08:33AM 38.7858 -75.4106 206° Southwest 440 506 38,000  Level Washington Center
08:34AM 38.6778 -75.4772 206° Southwest 440 506 38,000  Level Washington Center
08:35AM 38.5692 -75.5411 205° Southwest 435 501 38,000  Level Washington Center
08:36AM 38.4608 -75.6050 205° Southwest 435 501 38,000  Level Washington Center
08:37AM 38.3525 -75.6658 204° Southwest 430 495 38,000  Level Washington Center
08:38AM 38.2419 -75.7292 204° Southwest 430 495 38,000  Level Washington Center
08:39AM 38.1314 -75.7897 203° Southwest 435 501 38,000  Level Washington Center
08:40AM 38.0228 -75.8553 205° Southwest 440 506 38,000  Level Washington Center
08:41AM 37.9119 -75.9181 204° Southwest 440 506 38,000  Level Washington Center
08:42AM 37.8033 -75.9808 205° Southwest 435 501 38,000  Level Washington Center
08:43AM 37.6864 -76.0536 206° Southwest 435 501 38,000  Level Washington Center
08:44AM 37.5756 -76.1186 205° Southwest 435 501 38,000  Level Washington Center
08:45AM 37.4753 -76.1675 201° Southwest 435 501 38,000  Level Washington Center
08:46AM 37.3664 -76.2294 204° Southwest 435 501 38,000  Level Washington Center
08:47AM 37.2597 -76.2911 205° Southwest 430 495 38,000  Level Washington Center
08:48AM 37.1508 -76.3528 204° Southwest 430 495 38,000  Level Washington Center
08:49AM 37.0419 -76.4167 205° Southwest 430 495 38,000  Level Washington Center
08:50AM 36.9331 -76.4753 203° Southwest 430 495 38,000  Level Washington Center
08:51AM 36.8200 -76.5286 201° Southwest 435 501 38,000  Level Washington Center
08:52AM 36.6944 -76.5867 200° South 435 501 38,000  Level Washington Center
08:53AM 36.5917 -76.6267 197° South 435 501 38,000  Level Washington Center
08:54AM 36.4767 -76.6742 198° South 435 501 38,000  Level Washington Center
08:55AM 36.3614 -76.7217 198° South 435 501 38,000  Level Washington Center
08:56AM 36.2483 -76.7664 198° South 435 501 38,000  Level Washington Center
08:57AM 36.1353 -76.8136 199° South 430 495 38,000  Level Washington Center
08:58AM 36.0200 -76.8581 197° South 430 495 38,000  Level Washington Center
08:59AM 35.9069 -76.9050 199° South 430 495 38,000  Level Washington Center
09:00AM 35.7958 -76.9492 198° South 430 495 38,000  Level Washington Center
09:01AM 35.6847 -76.9933 198° South 425 489 38,000  Level Washington Center
09:02AM 35.5653 -77.0425 199° South 420 483 38,000  Level Washington Center
09:03AM 35.4519 -77.0889 198° South 425 489 38,000  Level Washington Center
09:04AM 35.3386 -77.1325 197° South 425 489 38,000  Level Washington Center
09:05AM 35.2275 -77.1786 199° South 425 489 38,000  Level Washington Center
09:06AM 35.1183 -77.2222 198° South 425 489 38,000  Level Washington Center
09:07AM 35.0072 -77.2656 198° South 425 489 38,000  Level Washington Center
09:08AM 34.8939 -77.3114 198° South 425 489 38,000  Level Washington Center
09:09AM 34.7972 -77.3525 199° South 425 489 38,000  Level Washington Center
09:10AM 34.6861 -77.4006 200° South 425 489 38,000  Level Washington Center
09:11AM 34.5750 -77.4383 196° South 425 489 38,000  Level Washington Center
09:12AM 34.4656 -77.4864 200° South 425 489 38,000  Level Washington Center
09:13AM 34.3564 -77.5267 197° South 425 489 38,000  Level Washington Center
09:15AM 34.1183 -77.6153 197° South 430 495 38,000  Level Jacksonville Center
09:16AM 34.0075 -77.6622 199° South 416 479 38,000  Level Jacksonville Center
09:17AM 33.9103 -77.7331 211° Southwest 416 479 38,000  Level Jacksonville Center
09:18AM 33.8150 -77.8036 212° Southwest 416 479 38,000  Level Jacksonville Center
09:19AM 33.7200 -77.8789 213° Southwest 422 486 38,000 240 Level Jacksonville Center
09:20AM 33.6250 -77.9542 213° Southwest 422 486 38,500 480 Climbing Jacksonville Center
09:21AM 33.5297 -78.0292 213° Southwest 422 486 39,000 240 Climbing Jacksonville Center
09:22AM 33.4236 -78.0872 205° Southwest 422 486 39,000  Level Jacksonville Center
09:23AM 33.3122 -78.1256 196° South 417 480 39,000  Level Jacksonville Center
09:24AM 33.2031 -78.1611 195° South 417 480 39,000  Level Jacksonville Center
09:25AM 33.0919 -78.2017 197° South 417 480 39,000  Level Jacksonville Center
09:26AM 32.9786 -78.2425 197° South 418 481 39,000  Level Jacksonville Center
09:27AM 32.8672 -78.2778 195° South 418 481 39,000  Level Jacksonville Center
09:28AM 32.7581 -78.3206 198° South 413 475 39,000  Level Jacksonville Center
09:29AM 32.6489 -78.3556 195° South 413 475 39,000  Level Jacksonville Center
09:30AM 32.5397 -78.3956 197° South 413 475 39,000  Level Jacksonville Center
09:31AM 32.4306 -78.4353 197° South 413 475 39,100 480 Climbing Jacksonville Center
09:32AM 32.3256 -78.4775 199° South 408 470 40,000 420 Climbing Jacksonville Center
09:33AM 32.2142 -78.5147 196° South 408 470 40,000  Level Jacksonville Center
09:34AM 32.1047 -78.5517 196° South 413 475 40,000  Level Jacksonville Center
09:35AM 31.9953 -78.5889 196° South 413 475 40,000 -60 Level Jacksonville Center
09:36AM 31.8881 -78.6281 197° South 413 475 39,900  Descending Jacksonville Center
09:37AM 31.7808 -78.6647 196° South 413 475 40,000  Climbing Jacksonville Center
09:38AM 31.6714 -78.7064 198° South 413 475 40,000  Level Jacksonville Center
09:39AM 31.5681 -78.7378 195° South 408 470 40,000  Level Jacksonville Center
09:40AM 31.4678 -78.7933 205° Southwest 402 463 40,000  Level Jacksonville Center
09:41AM 31.3672 -78.8489 205° Southwest 402 463 40,000  Level Jacksonville Center
09:43AM 31.2495 -78.9033 202° Southwest  Level FlightAware Approximate
09:43AM 31.1681 -78.9547 202° Southwest 397 457 40,000  Level Jacksonville Center
09:44AM 31.0653 -79.0075 204° Southwest 397 457 40,000  Level Jacksonville Center
09:45AM 30.9606 -79.0625 204° Southwest 397 457 40,000  Level Jacksonville Center
09:46AM 30.8597 -79.1175 205° Southwest 397 457 40,000  Level Jacksonville Center
09:47AM 30.7569 -79.1700 204° Southwest 397 457 40,000  Level Jacksonville Center
09:48AM 30.6606 -79.2244 206° Southwest 397 457 40,000  Level Jacksonville Center
09:49AM 30.5764 -79.2783 209° Southwest 398 458 40,000  Level Jacksonville Center
09:50AM 30.5031 -79.3083 199° South 396 456 40,000  Level Miami Center
09:51AM 30.4000 -79.3636 205° Southwest 406 467 40,000  Level Miami Center
09:52AM 30.2969 -79.4139 203° Southwest 406 467 40,000  Level Miami Center
09:53AM 30.1961 -79.4667 204° Southwest 400 460 40,000  Level Miami Center
09:54AM 30.0950 -79.5194 204° Southwest 406 467 40,000  Level Miami Center
09:55AM 30.0003 -79.5697 205° Southwest 397 457 40,000 -60 Level Miami Center
09:56AM 29.8950 -79.6222 203° Southwest 403 464 39,900 -1,080 Descending Miami Center
09:57AM 29.8003 -79.6722 205° Southwest 393 452 37,900 -2,040 Descending Miami Center
09:58AM 29.7011 -79.7247 205° Southwest 388 447 35,900 -2,100 Descending Miami Center
09:59AM 29.6042 -79.7769 205° Southwest 388 447 33,800 -2,100 Descending Miami Center
10:00AM 29.5050 -79.8292 205° Southwest 388 447 31,700 -2,100 Descending Miami Center
10:01AM 29.4081 -79.8767 203° Southwest 388 447 29,700 -2,040 Descending Miami Center
10:02AM 29.3111 -79.9261 204° Southwest 383 441 27,700 -2,040 Descending Miami Center
10:03AM 29.2161 -79.9736 204° Southwest 378 435 25,700 -1,980 Descending Miami Center
10:04AM 29.1297 -80.0233 207° Southwest 372 428 23,800 -1,860 Descending Miami Center
10:05AM 29.0389 -80.0681 203° Southwest 362 417 22,000 -1,800 Descending Miami Center
10:06AM 28.9525 -80.1083 202° Southwest 352 405 20,200 -1,800 Descending Miami Center
10:08AM 28.8667 -80.3167 245° Southwest 294 338 16,000 -1,800 Descending Orlando TRACON
10:09AM 28.8333 -80.4000 245° Southwest 299 344 14,200 -1,020 Descending Orlando TRACON
10:10AM 28.8167 -80.4833 257° West 290 334 14,000 -900 Descending Orlando TRACON
10:11AM 28.8167 -80.5833 270° West 291 335 12,500 -1,260 Descending Orlando TRACON
10:12AM 28.8000 -80.6667 257° West 287 330 11,500 -1,020 Descending Orlando TRACON
10:13AM 28.7833 -80.7667 259° West 287 330 10,500 -780 Descending Orlando TRACON
10:14AM 28.7667 -80.8500 257° West 279 321 10,000 -300 Descending Orlando TRACON
10:15AM 28.7333 -80.9333 245° Southwest 279 321 10,000 -180 Level Orlando TRACON
10:16AM 28.7167 -81.0167 257° West 270 311 9,700 -420 Descending Orlando TRACON
10:17AM 28.6833 -81.0833 240° Southwest 280 322 9,200 -360 Descending Orlando TRACON
10:18AM 28.6167 -81.1333 213° Southwest 267 307 9,000 -120 Descending Orlando TRACON
10:19AM 28.5667 -81.1667 210° Southwest 232 267 9,000 -360 Level Orlando TRACON
10:20AM 28.5000 -81.1833 192° South 246 283 8,300 -720 Descending Orlando TRACON
10:21AM 28.4333 -81.1833 180° South 225 259 7,600 -900 Descending Orlando TRACON
10:22AM 28.3667 -81.1833 180° South 206 237 6,600 -1,200 Descending Orlando TRACON
10:23AM 28.3167 -81.1833 180° South 207 238 5,200 -1,080 Descending Orlando TRACON
10:24AM 28.2500 -81.1833 180° South 200 230 4,500 -720 Descending Orlando TRACON
10:25AM 28.2500 -81.2333 270° West 173 199 3,800 -840 Descending Orlando TRACON
10:26AM 28.3000 -81.2500 344° North 154 177 2,900 -1,140 Descending Orlando TRACON
10:27AM 28.3333 -81.2667 336° Northwest 135 155 1,600 -840 Descending Orlando TRACON
10:28AM 28.3667 -81.2833 336° Northwest 141 162 1,300 -600 Descending Orlando TRACON
10:29AM 28.4000 -81.2833 360° North 126 145 500 -840 Descending Orlando TRACON